createdAt,value
2023-03-11T00:01:49.195Z,6.01
2023-03-11T00:03:36.158Z,7.81
2023-03-11T00:05:20.189Z,7.32
2023-03-11T00:07:03.967Z,6.19
2023-03-11T00:08:43.060Z,5.86
2023-03-11T00:10:22.156Z,5.68
2023-03-11T00:11:54.180Z,5.81
2023-03-11T00:13:46.188Z,5.16
2023-03-11T00:15:30.214Z,8.06
2023-03-11T00:17:15.958Z,6.94
2023-03-11T00:19:01.598Z,8.57
2023-03-11T00:20:33.939Z,9.08
2023-03-11T00:22:06.169Z,5.77
2023-03-11T00:23:59.184Z,7.62
2023-03-11T00:25:24.647Z,6.96
2023-03-11T00:27:13.527Z,8.48
2023-03-11T00:29:06.176Z,8.92
2023-03-11T00:30:38.357Z,6.13
2023-03-11T00:32:17.797Z,6.44
2023-03-11T00:33:50.095Z,4.99
2023-03-11T00:35:29.139Z,5.28
2023-03-11T00:37:12.916Z,5.38
2023-03-11T00:38:33.466Z,5.52
2023-03-11T00:40:19.648Z,5.32
2023-03-11T00:44:11.914Z,5.11
2023-03-11T00:45:34.532Z,5.11
2023-03-11T00:47:15.757Z,4.81
2023-03-11T00:51:10.055Z,5.01
2023-03-11T00:52:38.174Z,4.88
2023-03-11T00:54:21.617Z,4.85
2023-03-11T00:56:05.349Z,4.65
2023-03-11T00:57:45.241Z,4.98
2023-03-11T00:59:19.725Z,4.83
2023-03-11T01:01:14.196Z,5.33
2023-03-11T01:03:06.877Z,5.51
2023-03-11T01:04:50.507Z,4.99
2023-03-11T01:06:44.738Z,5.73
2023-03-11T01:08:38.186Z,5.70
2023-03-11T01:10:22.043Z,6.11
2023-03-11T01:12:05.701Z,5.58
2023-03-11T01:13:37.349Z,4.82
2023-03-11T01:15:11.852Z,5.26
2023-03-11T01:17:05.162Z,6.19
2023-03-11T01:18:48.867Z,5.41
2023-03-11T01:20:32.761Z,5.12
2023-03-11T01:21:58.482Z,5.54
2023-03-11T01:23:28.936Z,6.76
2023-03-11T01:25:08.654Z,7.13
2023-03-11T01:26:42.492Z,7.28
2023-03-11T01:28:12.840Z,6.04
2023-03-11T01:29:33.484Z,5.72
2023-03-11T01:31:14.235Z,6.01
2023-03-11T01:32:57.977Z,5.32
2023-03-11T01:34:51.149Z,5.64
2023-03-11T01:36:30.630Z,5.09
2023-03-11T01:38:14.178Z,5.23
2023-03-11T01:39:58.127Z,4.98
2023-03-11T01:41:32.766Z,4.71
2023-03-11T01:43:17.379Z,4.85
2023-03-11T01:44:56.812Z,4.74
2023-03-11T01:46:40.630Z,5.15
2023-03-11T01:48:01.046Z,4.89
2023-03-11T01:49:32.953Z,5.28
2023-03-11T01:51:02.806Z,4.72
2023-03-11T01:52:32.054Z,4.71
2023-03-11T01:54:11.910Z,4.60
2023-03-11T01:55:46.451Z,4.50
2023-03-11T01:57:18.691Z,4.48
2023-03-11T01:58:51.618Z,4.94
2023-03-11T02:00:20.282Z,4.12
2023-03-11T02:02:04.573Z,4.60
2023-03-11T02:03:32.194Z,5.21
2023-03-11T02:05:15.987Z,4.23
2023-03-11T02:06:55.475Z,3.69
2023-03-11T02:08:39.006Z,3.87
2023-03-11T02:10:22.769Z,3.78
2023-03-11T02:11:55.169Z,3.49
2023-03-11T02:13:38.093Z,3.92
2023-03-11T02:15:00.998Z,4.32
2023-03-11T02:16:44.609Z,4.51
2023-03-11T02:18:29.483Z,3.98
2023-03-11T02:20:01.846Z,11.71
2023-03-11T02:21:34.282Z,7.50
2023-03-11T02:23:18.995Z,4.24
2023-03-11T02:24:52.180Z,4.23
2023-03-11T02:26:35.731Z,5.13
2023-03-11T02:28:19.416Z,4.81
2023-03-11T02:29:58.724Z,4.32
2023-03-11T02:31:30.688Z,4.79
2023-03-11T02:32:51.640Z,4.53
2023-03-11T02:34:16.220Z,3.75
2023-03-11T02:35:50.673Z,3.92
2023-03-11T02:37:22.739Z,5.71
2023-03-11T02:39:04.018Z,4.28
2023-03-11T02:40:32.247Z,3.75
2023-03-11T02:42:15.881Z,4.12
2023-03-11T02:44:05.686Z,4.14
2023-03-11T02:45:30.938Z,3.83
2023-03-11T02:46:59.253Z,3.88
2023-03-11T02:48:42.895Z,4.94
2023-03-11T02:50:17.524Z,4.39
2023-03-11T02:52:01.418Z,4.51
2023-03-11T02:53:31.213Z,6.53
2023-03-11T02:55:15.260Z,4.23
2023-03-11T02:56:52.590Z,3.54
2023-03-11T02:58:26.650Z,4.01
2023-03-11T03:00:07.537Z,3.94
2023-03-11T03:01:59.489Z,3.28
2023-03-11T03:03:33.992Z,3.55
2023-03-11T03:05:08.255Z,3.52
2023-03-11T03:07:01.169Z,3.71
2023-03-11T03:08:44.673Z,3.82
2023-03-11T03:10:19.059Z,3.37
2023-03-11T03:12:00.886Z,3.54
2023-03-11T03:13:37.113Z,3.48
2023-03-11T03:15:20.832Z,3.54
2023-03-11T03:17:05.332Z,3.24
2023-03-11T03:18:41.439Z,3.58
2023-03-11T03:20:10.926Z,3.39
2023-03-11T03:21:41.207Z,3.69
2023-03-11T03:23:15.944Z,3.97
2023-03-11T03:24:51.036Z,3.74
2023-03-11T03:26:13.769Z,3.88
2023-03-11T03:27:47.217Z,3.97
2023-03-11T03:29:30.723Z,4.23
2023-03-11T03:31:11.937Z,4.05
2023-03-11T03:32:47.281Z,3.95
2023-03-11T03:34:12.341Z,3.85
2023-03-11T03:35:51.840Z,4.21
2023-03-11T03:37:38.638Z,4.35
2023-03-11T03:39:11.086Z,3.90
2023-03-11T03:40:45.815Z,4.00
2023-03-11T03:42:29.314Z,4.11
2023-03-11T03:44:13.020Z,4.63
2023-03-11T03:45:47.472Z,4.34
2023-03-11T03:47:19.510Z,4.28
2023-03-11T03:49:03.465Z,4.46
2023-03-11T03:50:35.147Z,5.02
2023-03-11T03:52:09.263Z,4.83
2023-03-11T03:53:53.128Z,4.90
2023-03-11T03:55:27.400Z,4.64
2023-03-11T03:56:50.806Z,5.19
2023-03-11T03:58:34.612Z,5.26
2023-03-11T04:00:21.610Z,5.43
2023-03-11T04:02:02.340Z,5.12
2023-03-11T04:03:41.489Z,5.27
2023-03-11T04:05:28.285Z,5.21
2023-03-11T04:07:03.711Z,5.10
2023-03-11T04:08:42.767Z,5.67
2023-03-11T04:10:34.840Z,5.33
2023-03-11T04:12:18.898Z,6.46
2023-03-11T04:13:51.562Z,7.56
2023-03-11T04:15:35.406Z,6.43
2023-03-11T04:17:07.644Z,6.62
2023-03-11T04:18:45.131Z,5.94
2023-03-11T04:20:19.993Z,6.20
2023-03-11T04:21:53.395Z,6.50
2023-03-11T04:23:26.298Z,6.60
2023-03-11T04:24:48.226Z,7.06
2023-03-11T04:26:10.818Z,7.17
2023-03-11T04:27:46.127Z,6.91
2023-03-11T04:29:29.913Z,6.57
2023-03-11T04:31:13.849Z,6.61
2023-03-11T04:32:45.979Z,6.27
2023-03-11T04:34:25.921Z,6.63
2023-03-11T04:35:58.635Z,6.23
2023-03-11T04:37:33.012Z,6.39
2023-03-11T04:39:16.524Z,6.25
2023-03-11T04:41:01.174Z,5.20
2023-03-11T04:42:35.190Z,6.36
2023-03-11T04:44:19.322Z,5.91
2023-03-11T04:45:56.354Z,6.93
2023-03-11T04:47:35.264Z,7.45
2023-03-11T04:49:08.139Z,7.28
2023-03-11T04:50:31.907Z,20.00
2023-03-11T04:52:06.482Z,57.99
2023-03-11T04:53:50.030Z,78.84
2023-03-11T04:55:21.601Z,78.90
2023-03-11T04:57:06.589Z,114.33
2023-03-11T04:58:55.515Z,80.33
2023-03-11T05:00:25.765Z,128.07
2023-03-11T05:02:12.480Z,38.43
2023-03-11T05:03:58.816Z,79.83
2023-03-11T05:05:38.701Z,23.63
2023-03-11T05:07:23.750Z,17.35
2023-03-11T05:08:59.057Z,9.82
2023-03-11T05:10:39.038Z,13.27
2023-03-11T05:12:23.203Z,8.59
2023-03-11T05:14:08.432Z,5.36
2023-03-11T05:15:42.843Z,22.60
2023-03-11T05:17:26.546Z,10.49
2023-03-11T05:19:16.692Z,13.67
2023-03-11T05:20:42.226Z,13.15
2023-03-11T05:22:26.022Z,30.65
2023-03-11T05:23:47.049Z,42.54
2023-03-11T05:25:34.921Z,102.90
2023-03-11T05:27:19.135Z,61.05
2023-03-11T05:28:55.833Z,41.89
2023-03-11T05:30:39.877Z,24.73
2023-03-11T05:32:23.736Z,17.78
2023-03-11T05:33:52.131Z,22.56
2023-03-11T05:35:45.221Z,12.73
2023-03-11T05:37:17.510Z,16.23
2023-03-11T05:39:02.008Z,18.45
2023-03-11T05:40:36.846Z,15.96
2023-03-11T05:42:08.948Z,21.76
2023-03-11T05:44:02.268Z,25.09
2023-03-11T05:45:42.153Z,16.48
2023-03-11T05:47:25.702Z,13.12
2023-03-11T05:49:09.698Z,14.25
2023-03-11T05:50:53.950Z,12.91
2023-03-11T05:52:34.887Z,13.14
2023-03-11T05:54:26.007Z,20.08
2023-03-11T05:56:06.169Z,19.91
2023-03-11T05:57:58.203Z,10.83
2023-03-11T05:59:33.403Z,11.07
2023-03-11T06:01:09.737Z,10.78
2023-03-11T06:03:03.218Z,9.50
2023-03-11T06:04:35.438Z,7.74
2023-03-11T06:06:22.912Z,6.74
2023-03-11T06:08:06.851Z,14.62
2023-03-11T06:09:41.633Z,9.24
2023-03-11T06:11:07.282Z,10.49
2023-03-11T06:12:48.091Z,7.32
2023-03-11T06:14:38.049Z,15.70
2023-03-11T06:16:22.192Z,13.78
2023-03-11T06:18:12.210Z,14.34
2023-03-11T06:19:43.062Z,12.56
2023-03-11T06:21:26.481Z,18.58
2023-03-11T06:22:49.519Z,14.06
2023-03-11T06:24:23.586Z,9.06
2023-03-11T06:25:55.895Z,10.16
2023-03-11T06:27:31.214Z,6.57
2023-03-11T06:29:10.886Z,12.70
2023-03-11T06:30:54.504Z,7.67
2023-03-11T06:32:28.812Z,10.83
2023-03-11T06:33:59.601Z,9.58
2023-03-11T06:35:52.204Z,8.31
2023-03-11T06:37:24.306Z,7.79
2023-03-11T06:39:08.368Z,5.52
2023-03-11T06:40:55.893Z,6.83
2023-03-11T06:42:39.613Z,8.24
2023-03-11T06:44:14.925Z,10.41
2023-03-11T06:45:49.186Z,14.51
2023-03-11T06:47:21.915Z,6.17
2023-03-11T06:48:54.077Z,12.55
2023-03-11T06:50:38.174Z,5.32
2023-03-11T06:52:12.602Z,3.11
2023-03-11T06:53:44.547Z,2.85
2023-03-11T06:55:28.411Z,3.16
2023-03-11T06:57:00.619Z,3.08
2023-03-11T06:58:39.717Z,5.47
2023-03-11T07:00:24.025Z,3.35
2023-03-11T07:02:11.347Z,2.89
2023-03-11T07:03:51.196Z,6.10
2023-03-11T07:05:35.758Z,6.71
2023-03-11T07:07:17.296Z,4.31
2023-03-11T07:09:05.000Z,3.00
2023-03-11T07:10:49.246Z,5.40
2023-03-11T07:12:22.867Z,3.41
2023-03-11T07:14:02.666Z,3.13
2023-03-11T07:15:45.215Z,3.70
2023-03-11T07:17:39.245Z,4.06
2023-03-11T07:19:24.465Z,4.33
2023-03-11T07:21:08.153Z,4.55
2023-03-11T07:22:31.626Z,3.41
2023-03-11T07:24:16.317Z,3.11
2023-03-11T07:26:09.087Z,4.01
2023-03-11T07:27:56.141Z,3.46
2023-03-11T07:29:39.287Z,4.17
2023-03-11T07:31:11.708Z,4.25
2023-03-11T07:32:34.113Z,4.03
2023-03-11T07:34:10.540Z,5.07
2023-03-11T07:35:50.092Z,4.53
2023-03-11T07:37:24.565Z,5.66
2023-03-11T07:39:06.141Z,8.08
2023-03-11T07:40:33.373Z,7.64
2023-03-11T07:42:12.697Z,6.47
2023-03-11T07:43:45.692Z,6.69
2023-03-11T07:45:24.461Z,4.36
2023-03-11T07:47:08.707Z,4.09
2023-03-11T07:48:37.839Z,4.27
2023-03-11T07:50:21.497Z,5.79
2023-03-11T07:52:03.298Z,5.74
2023-03-11T07:53:46.432Z,4.68
2023-03-11T07:55:30.557Z,5.88
2023-03-11T07:57:05.103Z,5.23
2023-03-11T07:58:36.676Z,4.51
2023-03-11T08:00:20.303Z,5.04
2023-03-11T08:02:08.284Z,4.81
2023-03-11T08:03:52.189Z,5.57
2023-03-11T08:05:26.723Z,4.53
2023-03-11T08:06:58.984Z,4.91
2023-03-11T08:08:38.105Z,4.79
2023-03-11T08:10:10.400Z,5.14
2023-03-11T08:11:38.309Z,5.80
2023-03-11T08:13:13.821Z,5.13
2023-03-11T08:14:48.339Z,6.01
2023-03-11T08:16:20.548Z,6.05
2023-03-11T08:18:03.962Z,6.38
2023-03-11T08:19:35.984Z,6.07
2023-03-11T08:21:06.751Z,6.35
2023-03-11T08:22:58.141Z,5.94
2023-03-11T08:24:41.901Z,7.03
2023-03-11T08:26:25.811Z,7.59
2023-03-11T08:28:09.362Z,7.04
2023-03-11T08:29:32.489Z,7.64
2023-03-11T08:31:14.227Z,6.77
2023-03-11T08:32:44.288Z,6.34
2023-03-11T08:34:27.927Z,6.79
2023-03-11T08:36:18.607Z,7.15
2023-03-11T08:37:39.371Z,6.91
2023-03-11T08:39:23.728Z,6.31
2023-03-11T08:41:08.501Z,6.94
2023-03-11T08:42:53.468Z,6.25
2023-03-11T08:44:37.156Z,6.95
2023-03-11T08:46:21.861Z,7.68
2023-03-11T08:48:01.713Z,6.24
2023-03-11T08:49:45.919Z,7.21
2023-03-11T08:51:26.129Z,7.23
2023-03-11T08:53:18.477Z,6.90
2023-03-11T08:55:00.149Z,9.97
2023-03-11T08:56:49.621Z,9.32
2023-03-11T08:58:17.931Z,8.06
2023-03-11T08:59:38.381Z,8.06
2023-03-11T09:01:09.254Z,8.66
2023-03-11T09:02:48.638Z,8.92
2023-03-11T09:04:40.820Z,9.15
2023-03-11T09:06:24.758Z,10.59
2023-03-11T09:08:05.725Z,9.46
2023-03-11T09:09:37.706Z,11.60
2023-03-11T09:11:21.929Z,9.09
2023-03-11T09:12:53.912Z,8.82
2023-03-11T09:14:25.395Z,8.75
2023-03-11T09:16:00.812Z,7.13
2023-03-11T09:17:34.991Z,6.81
2023-03-11T09:19:06.266Z,5.89
2023-03-11T09:20:51.220Z,6.74
2023-03-11T09:22:30.924Z,9.35
2023-03-11T09:24:03.529Z,9.19
2023-03-11T09:25:47.157Z,7.74
2023-03-11T09:27:27.876Z,5.77
2023-03-11T09:28:59.750Z,6.55
2023-03-11T09:30:31.975Z,6.67
2023-03-11T09:32:11.094Z,6.90
2023-03-11T09:33:54.922Z,6.91
2023-03-11T09:35:26.963Z,6.98
2023-03-11T09:36:59.232Z,5.25
2023-03-11T09:38:34.013Z,5.07
2023-03-11T09:40:17.730Z,5.97
2023-03-11T09:42:01.517Z,5.50
2023-03-11T09:43:35.326Z,5.30
2023-03-11T09:45:19.175Z,6.58
2023-03-11T09:47:03.348Z,7.30
2023-03-11T09:48:42.462Z,6.95
2023-03-11T09:50:06.284Z,7.76
2023-03-11T09:51:38.238Z,8.35
2023-03-11T09:53:19.633Z,7.84
2023-03-11T09:54:53.851Z,6.68
2023-03-11T09:56:28.278Z,6.37
2023-03-11T09:58:02.702Z,7.18
2023-03-11T09:59:34.802Z,6.84
2023-03-11T10:01:07.175Z,6.15
2023-03-11T10:02:46.832Z,7.48
2023-03-11T10:04:26.025Z,7.13
2023-03-11T10:05:58.414Z,6.33
2023-03-11T10:07:22.801Z,6.20
2023-03-11T10:09:04.285Z,6.58
2023-03-11T10:10:43.001Z,11.61
2023-03-11T10:12:06.095Z,14.20
2023-03-11T10:13:31.379Z,9.86
2023-03-11T10:15:15.598Z,9.07
2023-03-11T10:16:41.493Z,7.68
2023-03-11T10:18:24.870Z,7.82
2023-03-11T10:20:08.915Z,13.19
2023-03-11T10:21:52.241Z,12.95
2023-03-11T10:23:36.421Z,11.06
2023-03-11T10:24:57.345Z,13.10
2023-03-11T10:26:32.104Z,8.97
2023-03-11T10:28:16.631Z,10.08
2023-03-11T10:29:39.072Z,7.29
2023-03-11T10:31:23.131Z,9.25
2023-03-11T10:32:55.687Z,9.72
2023-03-11T10:34:39.231Z,9.44
2023-03-11T10:36:23.892Z,10.38
2023-03-11T10:38:03.803Z,9.75
2023-03-11T10:39:38.735Z,8.60
2023-03-11T10:41:22.315Z,9.91
2023-03-11T10:43:11.355Z,9.46
2023-03-11T10:44:41.251Z,9.84
2023-03-11T10:46:24.940Z,10.51
2023-03-11T10:48:09.143Z,10.46
2023-03-11T10:49:43.683Z,11.53
2023-03-11T10:51:31.488Z,9.88
2023-03-11T10:53:03.870Z,9.06
2023-03-11T10:54:47.510Z,11.84
2023-03-11T10:56:31.410Z,9.51
2023-03-11T10:58:14.934Z,10.46
2023-03-11T10:59:59.209Z,10.31
2023-03-11T11:01:31.135Z,9.49
2023-03-11T11:03:03.026Z,9.20
2023-03-11T11:04:34.525Z,9.31
2023-03-11T11:06:18.554Z,6.99
2023-03-11T11:07:58.111Z,8.80
2023-03-11T11:09:31.720Z,6.14
2023-03-11T11:11:15.386Z,7.62
2023-03-11T11:13:08.259Z,7.93
2023-03-11T11:14:52.158Z,8.22
2023-03-11T11:16:14.613Z,6.85
2023-03-11T11:18:02.918Z,7.13
2023-03-11T11:19:46.633Z,7.11
2023-03-11T11:21:30.491Z,6.73
2023-03-11T11:23:14.845Z,6.17
2023-03-11T11:25:02.601Z,6.10
2023-03-11T11:26:43.130Z,7.63
2023-03-11T11:28:14.875Z,7.47
2023-03-11T11:30:07.173Z,6.37
2023-03-11T11:31:51.273Z,5.95
2023-03-11T11:33:13.951Z,5.89
2023-03-11T11:34:46.371Z,6.72
2023-03-11T11:36:29.890Z,6.84
2023-03-11T11:38:11.347Z,7.37
2023-03-11T11:39:56.268Z,5.45
2023-03-11T11:41:32.557Z,3.65
2023-03-11T11:43:04.088Z,5.55
2023-03-11T11:44:50.337Z,5.82
2023-03-11T11:46:34.024Z,5.80
2023-03-11T11:48:08.640Z,4.97
2023-03-11T11:49:52.061Z,5.73
2023-03-11T11:51:37.667Z,4.89
2023-03-11T11:53:12.833Z,3.65
2023-03-11T11:54:58.735Z,5.24
2023-03-11T11:56:42.141Z,5.30
2023-03-11T11:58:26.190Z,5.58
2023-03-11T12:00:09.543Z,4.82
2023-03-11T12:01:34.718Z,5.34
2023-03-11T12:03:00.506Z,4.71
2023-03-11T12:04:32.387Z,4.29
2023-03-11T12:06:16.345Z,4.76
2023-03-11T12:07:44.327Z,6.51
2023-03-11T12:09:14.898Z,4.49
2023-03-11T12:10:47.035Z,4.51
2023-03-11T12:12:19.272Z,5.25
2023-03-11T12:13:54.309Z,5.09
2023-03-11T12:15:17.019Z,6.81
2023-03-11T12:16:56.286Z,5.88
2023-03-11T12:18:39.645Z,5.83
2023-03-11T12:20:23.869Z,6.69
2023-03-11T12:22:11.703Z,7.13
2023-03-11T12:23:51.876Z,7.62
2023-03-11T12:25:33.350Z,5.45
2023-03-11T12:27:18.163Z,5.97
2023-03-11T12:28:52.863Z,6.95
2023-03-11T12:30:38.162Z,6.64
2023-03-11T12:32:30.344Z,6.60
2023-03-11T12:34:14.480Z,6.10
2023-03-11T12:35:59.210Z,6.68
2023-03-11T12:37:33.254Z,4.76
2023-03-11T12:39:17.319Z,5.44
2023-03-11T12:41:01.671Z,5.75
2023-03-11T12:42:45.243Z,5.79
2023-03-11T12:44:16.538Z,6.13
2023-03-11T12:45:57.437Z,7.21
2023-03-11T12:47:41.109Z,7.71
2023-03-11T12:49:26.215Z,8.15
2023-03-11T12:50:48.730Z,5.90
2023-03-11T12:52:37.288Z,5.84
2023-03-11T12:54:14.163Z,6.27
2023-03-11T12:56:06.474Z,6.17
2023-03-11T12:57:38.467Z,5.71
2023-03-11T12:59:22.632Z,5.27
2023-03-11T13:01:07.338Z,6.26
2023-03-11T13:02:48.937Z,6.78
2023-03-11T13:04:32.753Z,6.02
2023-03-11T13:06:17.105Z,6.49
2023-03-11T13:07:47.557Z,6.98
2023-03-11T13:09:21.493Z,8.35
2023-03-11T13:10:53.669Z,8.02
2023-03-11T13:12:37.045Z,8.54
2023-03-11T13:14:20.897Z,6.86
2023-03-11T13:16:00.492Z,7.19
2023-03-11T13:17:43.715Z,7.09
2023-03-11T13:19:27.224Z,6.11
2023-03-11T13:21:11.496Z,6.88
2023-03-11T13:22:53.864Z,5.73
2023-03-11T13:24:26.896Z,6.58
2023-03-11T13:25:49.499Z,6.52
2023-03-11T13:27:32.578Z,6.21
2023-03-11T13:29:04.809Z,5.61
2023-03-11T13:30:32.788Z,6.04
2023-03-11T13:32:16.754Z,5.49
2023-03-11T13:33:39.419Z,5.28
2023-03-11T13:35:23.993Z,5.53
2023-03-11T13:36:56.374Z,5.40
2023-03-11T13:38:19.539Z,5.42
2023-03-11T13:40:03.573Z,5.43
2023-03-11T13:41:46.907Z,5.40
2023-03-11T13:43:26.223Z,5.84
2023-03-11T13:45:10.823Z,5.72
2023-03-11T13:46:54.811Z,6.67
2023-03-11T13:48:23.450Z,6.47
2023-03-11T13:49:57.650Z,6.18
2023-03-11T13:51:22.842Z,5.39
2023-03-11T13:53:01.974Z,6.27
2023-03-11T13:54:45.190Z,6.48
2023-03-11T13:56:39.203Z,6.43
2023-03-11T13:58:22.749Z,6.50
2023-03-11T14:00:10.583Z,6.81
2023-03-11T14:01:54.206Z,5.45
2023-03-11T14:03:26.496Z,5.53
2023-03-11T14:05:01.259Z,6.53
2023-03-11T14:06:44.086Z,6.23
2023-03-11T14:08:37.183Z,5.13
2023-03-11T14:10:11.553Z,5.42
2023-03-11T14:12:03.612Z,4.89
2023-03-11T14:13:40.675Z,4.97
2023-03-11T14:15:20.058Z,4.67
2023-03-11T14:17:05.425Z,4.99
2023-03-11T14:18:34.891Z,5.63
2023-03-11T14:20:15.656Z,5.42
2023-03-11T14:21:49.069Z,4.80
2023-03-11T14:23:24.417Z,4.62
2023-03-11T14:25:04.399Z,5.11
2023-03-11T14:26:38.551Z,5.50
2023-03-11T14:28:02.220Z,5.15
2023-03-11T14:29:34.373Z,5.74
2023-03-11T14:31:18.299Z,5.29
2023-03-11T14:33:02.311Z,6.36
2023-03-11T14:34:34.492Z,6.27
2023-03-11T14:36:06.624Z,6.38
2023-03-11T14:37:38.200Z,6.50
2023-03-11T14:39:22.310Z,6.94
2023-03-11T14:41:11.205Z,7.41
2023-03-11T14:42:55.112Z,11.00
2023-03-11T14:44:48.345Z,9.63
2023-03-11T14:46:20.503Z,8.81
2023-03-11T14:48:04.551Z,8.62
2023-03-11T14:49:24.700Z,7.27
2023-03-11T14:50:48.589Z,7.97
2023-03-11T14:52:32.467Z,7.51
2023-03-11T14:54:16.393Z,7.34
2023-03-11T14:56:06.073Z,5.99
2023-03-11T14:57:59.158Z,7.17
2023-03-11T14:59:34.385Z,6.67
2023-03-11T15:01:09.133Z,7.66
2023-03-11T15:02:48.289Z,6.97
2023-03-11T15:04:23.079Z,6.51
2023-03-11T15:06:02.714Z,7.30
2023-03-11T15:07:22.606Z,6.29
2023-03-11T15:09:06.378Z,7.43
2023-03-11T15:10:38.038Z,7.63
2023-03-11T15:12:19.364Z,7.29
2023-03-11T15:14:06.805Z,5.64
2023-03-11T15:15:50.314Z,6.91
2023-03-11T15:17:39.899Z,7.50
2023-03-11T15:19:04.261Z,7.48
2023-03-11T15:20:27.255Z,7.55
2023-03-11T15:22:06.452Z,9.17
2023-03-11T15:23:38.184Z,8.80
2023-03-11T15:25:19.825Z,8.08
2023-03-11T15:27:00.855Z,7.37
2023-03-11T15:28:33.641Z,7.01
2023-03-11T15:30:06.436Z,5.46
2023-03-11T15:31:45.741Z,5.71
2023-03-11T15:33:39.291Z,5.43
2023-03-11T15:35:11.730Z,6.37
2023-03-11T15:37:06.440Z,7.05
2023-03-11T15:38:59.161Z,6.91
2023-03-11T15:40:45.688Z,5.48
2023-03-11T15:42:17.907Z,4.98
2023-03-11T15:44:11.252Z,5.37
2023-03-11T15:45:54.901Z,5.72
2023-03-11T15:47:29.515Z,6.42
2023-03-11T15:49:13.586Z,5.93
2023-03-11T15:50:54.149Z,6.59
2023-03-11T15:52:38.077Z,5.96
2023-03-11T15:54:10.527Z,6.57
2023-03-11T15:58:05.227Z,6.74
2023-03-11T15:59:48.872Z,6.09
2023-03-11T16:01:34.105Z,6.63
2023-03-11T16:03:17.556Z,7.03
2023-03-11T16:05:10.422Z,7.33
2023-03-11T16:07:07.063Z,6.79
2023-03-11T16:08:41.181Z,5.82
2023-03-11T16:10:13.419Z,8.11
2023-03-11T16:11:57.322Z,4.30
2023-03-11T16:13:40.796Z,5.14
2023-03-11T16:15:24.021Z,5.13
2023-03-11T16:17:08.077Z,4.66
2023-03-11T16:18:40.009Z,4.99
2023-03-11T16:20:12.916Z,4.50
2023-03-11T16:22:05.214Z,4.60
2023-03-11T16:23:25.805Z,6.29
2023-03-11T16:25:19.240Z,8.65
2023-03-11T16:27:03.116Z,6.63
2023-03-11T16:28:37.460Z,5.20
2023-03-11T16:30:11.832Z,5.62
2023-03-11T16:31:53.471Z,4.69
2023-03-11T16:33:33.033Z,3.81
2023-03-11T16:35:18.573Z,3.35
2023-03-11T16:36:53.501Z,4.74
2023-03-11T16:38:26.121Z,13.94
2023-03-11T16:39:58.680Z,5.62
2023-03-11T16:41:38.002Z,3.64
2023-03-11T16:43:22.126Z,5.23
2023-03-11T16:45:15.122Z,4.79
2023-03-11T16:46:37.746Z,4.35
2023-03-11T16:48:02.839Z,4.15
2023-03-11T16:49:34.480Z,4.33
2023-03-11T16:51:07.174Z,3.34
2023-03-11T16:52:34.823Z,3.93
2023-03-11T16:54:09.704Z,4.04
2023-03-11T16:55:37.485Z,4.68
2023-03-11T16:57:21.869Z,5.32
2023-03-11T16:58:54.191Z,4.87
2023-03-11T17:00:37.475Z,5.75
2023-03-11T17:02:12.391Z,5.16
2023-03-11T17:03:55.552Z,5.91
2023-03-11T17:05:29.463Z,5.56
2023-03-11T17:07:09.127Z,5.45
2023-03-11T17:08:53.445Z,5.81
2023-03-11T17:10:38.561Z,5.07
2023-03-11T17:12:24.353Z,3.98
2023-03-11T17:14:03.299Z,4.30
2023-03-11T17:15:54.220Z,3.79
2023-03-11T17:17:24.740Z,4.63
2023-03-11T17:19:08.788Z,4.47
2023-03-11T17:20:55.335Z,4.15
2023-03-11T17:22:38.943Z,3.70
2023-03-11T17:24:09.146Z,4.51
2023-03-11T17:25:31.228Z,4.73
2023-03-11T17:27:15.430Z,4.49
2023-03-11T17:28:44.990Z,4.84
2023-03-11T17:30:36.451Z,4.79
2023-03-11T17:32:20.872Z,4.52
2023-03-11T17:34:04.677Z,4.88
2023-03-11T17:35:53.356Z,5.03
2023-03-11T17:37:19.235Z,5.20
2023-03-11T17:38:46.529Z,5.09
2023-03-11T17:40:18.765Z,6.63
2023-03-11T17:41:57.306Z,6.10
2023-03-11T17:43:36.627Z,5.24
2023-03-11T17:45:20.618Z,6.45
2023-03-11T17:46:56.022Z,6.07
2023-03-11T17:48:28.078Z,5.24
2023-03-11T17:50:12.282Z,5.46
2023-03-11T17:52:02.019Z,7.26
2023-03-11T17:53:21.950Z,5.61
2023-03-11T17:55:05.212Z,5.88
2023-03-11T17:56:49.002Z,6.08
2023-03-11T17:58:21.204Z,7.31
2023-03-11T18:00:10.138Z,8.24
2023-03-11T18:01:45.308Z,5.90
2023-03-11T18:03:08.992Z,6.14
2023-03-11T18:04:58.299Z,5.49
2023-03-11T18:06:30.116Z,5.67
2023-03-11T18:08:02.353Z,5.52
2023-03-11T18:09:41.646Z,7.12
2023-03-11T18:11:18.788Z,6.11
2023-03-11T18:12:51.437Z,6.00
2023-03-11T18:14:18.840Z,6.29
2023-03-11T18:16:02.343Z,7.09
2023-03-11T18:17:30.000Z,5.92
2023-03-11T18:18:58.078Z,7.33
2023-03-11T18:20:51.147Z,7.32
2023-03-11T18:22:35.457Z,7.47
2023-03-11T18:24:19.950Z,6.79
2023-03-11T18:25:45.061Z,6.99
2023-03-11T18:27:28.188Z,6.38
2023-03-11T18:29:24.251Z,6.77
2023-03-11T18:31:08.636Z,6.46
2023-03-11T18:32:55.381Z,7.74
2023-03-11T18:34:29.996Z,7.54
2023-03-11T18:36:02.725Z,6.66
2023-03-11T18:37:34.477Z,7.77
2023-03-11T18:39:11.553Z,9.11
2023-03-11T18:40:47.615Z,8.61
2023-03-11T18:42:21.955Z,7.46
2023-03-11T18:44:05.592Z,9.07
2023-03-11T18:45:28.088Z,8.92
2023-03-11T18:47:09.182Z,10.54
2023-03-11T18:48:40.735Z,11.10
2023-03-11T18:50:13.282Z,11.34
2023-03-11T18:51:56.996Z,11.17
2023-03-11T18:53:36.396Z,10.76
2023-03-11T18:54:57.724Z,9.81
2023-03-11T18:56:30.473Z,9.05
2023-03-11T18:58:15.520Z,9.60
2023-03-11T19:00:04.248Z,12.17
2023-03-11T19:01:34.600Z,15.48
2023-03-11T19:03:09.845Z,12.75
2023-03-11T19:04:54.360Z,12.24
2023-03-11T19:06:17.350Z,12.50
2023-03-11T19:07:40.281Z,10.94
2023-03-11T19:09:05.970Z,9.48
2023-03-11T19:10:49.838Z,8.89
2023-03-11T19:12:22.873Z,9.84
2023-03-11T19:13:47.682Z,8.97
2023-03-11T19:15:22.531Z,8.87
2023-03-11T19:16:54.873Z,8.73
2023-03-11T19:18:32.805Z,8.17
2023-03-11T19:20:03.529Z,8.03
2023-03-11T19:21:28.021Z,8.31
2023-03-11T19:22:59.712Z,7.68
2023-03-11T19:24:29.788Z,8.55
2023-03-11T19:26:05.385Z,6.67
2023-03-11T19:27:49.526Z,6.80
2023-03-11T19:29:10.816Z,7.57
2023-03-11T19:30:31.318Z,7.52
2023-03-11T19:31:51.746Z,8.73
2023-03-11T19:33:35.521Z,7.10
2023-03-11T19:35:10.176Z,8.65
2023-03-11T19:36:52.409Z,7.78
2023-03-11T19:38:24.704Z,8.54
2023-03-11T19:40:10.996Z,8.29
2023-03-11T19:41:51.033Z,8.72
2023-03-11T19:43:14.157Z,9.01
2023-03-11T19:44:49.367Z,9.08
2023-03-11T19:46:12.731Z,9.54
2023-03-11T19:47:52.225Z,7.56
2023-03-11T19:49:21.356Z,8.42
2023-03-11T19:51:05.270Z,9.07
2023-03-11T19:52:44.558Z,8.26
2023-03-11T19:54:13.114Z,7.86
2023-03-11T19:55:33.584Z,8.72
2023-03-11T19:56:56.736Z,8.70
2023-03-11T19:58:19.178Z,8.17
2023-03-11T20:00:02.697Z,8.68
2023-03-11T20:01:27.579Z,7.91
2023-03-11T20:03:11.841Z,7.50
2023-03-11T20:04:44.090Z,7.59
2023-03-11T20:06:29.402Z,8.03
2023-03-11T20:08:23.197Z,10.65
2023-03-11T20:09:57.255Z,6.57
2023-03-11T20:11:38.127Z,7.65
2023-03-11T20:13:10.496Z,12.42
2023-03-11T20:14:52.945Z,8.48
2023-03-11T20:16:18.645Z,8.13
2023-03-11T20:17:41.691Z,10.03
2023-03-11T20:19:21.686Z,7.41
2023-03-11T20:20:54.738Z,7.18
2023-03-11T20:22:22.622Z,7.54
2023-03-11T20:23:50.467Z,7.57
2023-03-11T20:25:25.172Z,8.37
2023-03-11T20:27:08.873Z,7.29
2023-03-11T20:28:29.413Z,8.27
2023-03-11T20:30:13.422Z,8.28
2023-03-11T20:31:57.247Z,7.58
2023-03-11T20:33:31.678Z,10.53
2023-03-11T20:35:15.570Z,8.56
2023-03-11T20:36:59.593Z,7.60
2023-03-11T20:38:34.591Z,7.51
2023-03-11T20:40:07.293Z,7.47
2023-03-11T20:41:39.221Z,7.05
2023-03-11T20:43:14.204Z,7.47
2023-03-11T20:44:46.148Z,8.04
2023-03-11T20:46:18.170Z,7.75
2023-03-11T20:48:02.011Z,8.59
2023-03-11T20:49:41.580Z,8.28
2023-03-11T20:51:25.671Z,7.66
2023-03-11T20:52:57.633Z,9.68
2023-03-11T20:54:46.202Z,7.74
2023-03-11T20:56:19.215Z,9.69
2023-03-11T20:58:02.802Z,11.34
2023-03-11T20:59:34.596Z,10.62
2023-03-11T21:01:19.149Z,10.24
2023-03-11T21:02:51.764Z,16.33
2023-03-11T21:04:24.597Z,12.02
2023-03-11T21:05:59.355Z,8.58
2023-03-11T21:07:26.851Z,9.42
2023-03-11T21:08:47.398Z,9.96
2023-03-11T21:10:19.496Z,9.62
2023-03-11T21:12:02.968Z,8.88
2023-03-11T21:13:47.133Z,9.10
2023-03-11T21:15:19.800Z,10.75
2023-03-11T21:16:43.164Z,10.21
2023-03-11T21:18:06.238Z,9.48
2023-03-11T21:19:31.387Z,9.57
2023-03-11T21:21:10.869Z,10.89
2023-03-11T21:22:33.709Z,10.80
2023-03-11T21:24:06.224Z,10.70
2023-03-11T21:25:41.958Z,10.00
2023-03-11T21:27:29.152Z,14.80
2023-03-11T21:28:59.964Z,11.60
2023-03-11T21:30:20.665Z,10.55
2023-03-11T21:32:04.479Z,10.61
2023-03-11T21:33:25.194Z,10.31
2023-03-11T21:34:57.866Z,9.35
2023-03-11T21:36:23.649Z,9.43
2023-03-11T21:37:46.752Z,11.49
2023-03-11T21:39:17.088Z,12.38
2023-03-11T21:40:37.828Z,11.08
2023-03-11T21:42:10.732Z,11.24
2023-03-11T21:43:45.514Z,10.86
2023-03-11T21:45:06.542Z,11.03